sensor_id;sensor_type;location;lat;lon;timestamp;pressure;altitude;pressure_sealevel;temperature;humidity
70027;BME280;57506;50.092;15.804;2022-08-21T00:00:08;98831.66;;;16.43;100.00
70027;BME280;57506;50.092;15.804;2022-08-21T00:02:35;98835.78;;;16.46;100.00
70027;BME280;57506;50.092;15.804;2022-08-21T00:05:00;98844.88;;;16.52;100.00
70027;BME280;57506;50.092;15.804;2022-08-21T00:07:26;98821.75;;;16.37;100.00
70027;BME280;57506;50.092;15.804;2022-08-21T00:09:52;98843.59;;;16.54;100.00
70027;BME280;57506;50.092;15.804;2022-08-21T00:12:19;98843.81;;;16.53;100.00
70027;BME280;57506;50.092;15.804;2022-08-21T00:14:44;98831.06;;;16.41;100.00
70027;BME280;57506;50.092;15.804;2022-08-21T00:17:10;98827.78;;;16.39;100.00
70027;BME280;57506;50.092;15.804;2022-08-21T00:19:35;98848.19;;;16.54;100.00
70027;BME280;57506;50.092;15.804;2022-08-21T00:22:01;98842.63;;;16.49;100.00
70027;BME280;57506;50.092;15.804;2022-08-21T00:24:27;98826.34;;;16.37;100.00
70027;BME280;57506;50.092;15.804;2022-08-21T00:26:53;98823.53;;;16.32;100.00
70027;BME280;57506;50.092;15.804;2022-08-21T00:29:19;98837.91;;;16.44;100.00
70027;BME280;57506;50.092;15.804;2022-08-21T00:31:45;98827.06;;;16.32;100.00
70027;BME280;57506;50.092;15.804;2022-08-21T00:34:12;98832.63;;;16.37;100.00
70027;BME280;57506;50.092;15.804;2022-08-21T00:36:38;98825.66;;;16.30;100.00
70027;BME280;57506;50.092;15.804;2022-08-21T00:39:06;98826.72;;;16.29;100.00
70027;BME280;57506;50.092;15.804;2022-08-21T00:41:32;98815.47;;;16.25;100.00
70027;BME280;57506;50.092;15.804;2022-08-21T00:43:58;98824.00;;;16.29;100.00
70027;BME280;57506;50.092;15.804;2022-08-21T00:46:24;98824.22;;;16.27;100.00
70027;BME280;57506;50.092;15.804;2022-08-21T00:48:50;98830.63;;;16.33;100.00
70027;BME280;57506;50.092;15.804;2022-08-21T00:51:20;98824.34;;;16.32;100.00
70027;BME280;57506;50.092;15.804;2022-08-21T00:53:54;98831.44;;;16.33;100.00
70027;BME280;57506;50.092;15.804;2022-08-21T00:56:21;98827.06;;;16.32;100.00
70027;BME280;57506;50.092;15.804;2022-08-21T00:58:48;98811.94;;;16.25;100.00
70027;BME280;57506;50.092;15.804;2022-08-21T01:01:14;98825.19;;;16.33;100.00
70027;BME280;57506;50.092;15.804;2022-08-21T01:03:39;98817.72;;;16.28;100.00
70027;BME280;57506;50.092;15.804;2022-08-21T01:06:05;98817.25;;;16.31;100.00
70027;BME280;57506;50.092;15.804;2022-08-21T01:08:32;98825.06;;;16.39;100.00
70027;BME280;57506;50.092;15.804;2022-08-21T01:10:58;98825.63;;;16.41;100.00
70027;BME280;57506;50.092;15.804;2022-08-21T01:13:25;98817.44;;;16.41;100.00
70027;BME280;57506;50.092;15.804;2022-08-21T01:15:54;98815.69;;;16.47;100.00
70027;BME280;57506;50.092;15.804;2022-08-21T01:18:20;98811.88;;;16.48;100.00
70027;BME280;57506;50.092;15.804;2022-08-21T01:23:58;98808.94;;;16.50;100.00
70027;BME280;57506;50.092;15.804;2022-08-21T01:26:28;98815.38;;;16.60;100.00
70027;BME280;57506;50.092;15.804;2022-08-21T01:31:26;98819.09;;;16.66;100.00
70027;BME280;57506;50.092;15.804;2022-08-21T01:33:52;98809.84;;;16.67;100.00
70027;BME280;57506;50.092;15.804;2022-08-21T01:36:18;98811.16;;;16.64;100.00
70027;BME280;57506;50.092;15.804;2022-08-21T01:38:44;98802.28;;;16.57;100.00
70027;BME280;57506;50.092;15.804;2022-08-21T01:41:10;98797.91;;;16.56;100.00
70027;BME280;57506;50.092;15.804;2022-08-21T01:43:35;98780.66;;;16.51;100.00
70027;BME280;57506;50.092;15.804;2022-08-21T01:46:03;98801.94;;;16.65;100.00
70027;BME280;57506;50.092;15.804;2022-08-21T01:48:28;98791.66;;;16.56;100.00
70027;BME280;57506;50.092;15.804;2022-08-21T01:50:54;98793.88;;;16.59;100.00
70027;BME280;57506;50.092;15.804;2022-08-21T01:53:19;98786.28;;;16.61;100.00
70027;BME280;57506;50.092;15.804;2022-08-21T01:55:45;98784.06;;;16.58;100.00
70027;BME280;57506;50.092;15.804;2022-08-21T01:58:11;98779.13;;;16.55;100.00
70027;BME280;57506;50.092;15.804;2022-08-21T02:00:36;98776.84;;;16.63;100.00
70027;BME280;57506;50.092;15.804;2022-08-21T02:03:02;98768.78;;;16.57;100.00
70027;BME280;57506;50.092;15.804;2022-08-21T02:05:28;98776.63;;;16.65;100.00
70027;BME280;57506;50.092;15.804;2022-08-21T02:07:54;98772.09;;;16.59;100.00
70027;BME280;57506;50.092;15.804;2022-08-21T02:10:26;98769.31;;;16.54;100.00
70027;BME280;57506;50.092;15.804;2022-08-21T02:12:53;98769.91;;;16.56;100.00
70027;BME280;57506;50.092;15.804;2022-08-21T02:15:18;98766.66;;;16.59;100.00
70027;BME280;57506;50.092;15.804;2022-08-21T02:17:48;98778.13;;;16.61;100.00
70027;BME280;57506;50.092;15.804;2022-08-21T02:20:20;98777.44;;;16.65;100.00
70027;BME280;57506;50.092;15.804;2022-08-21T02:22:46;98772.81;;;16.66;100.00
70027;BME280;57506;50.092;15.804;2022-08-21T02:25:12;98764.28;;;16.62;100.00
70027;BME280;57506;50.092;15.804;2022-08-21T02:27:43;98759.72;;;16.63;100.00
70027;BME280;57506;50.092;15.804;2022-08-21T02:30:27;98762.63;;;16.61;100.00
70027;BME280;57506;50.092;15.804;2022-08-21T02:32:53;98757.91;;;16.57;100.00
70027;BME280;57506;50.092;15.804;2022-08-21T02:35:19;98769.38;;;16.59;100.00
70027;BME280;57506;50.092;15.804;2022-08-21T02:38:06;98772.69;;;16.61;100.00
70027;BME280;57506;50.092;15.804;2022-08-21T02:40:35;98775.16;;;16.62;100.00
70027;BME280;57506;50.092;15.804;2022-08-21T02:43:03;98768.69;;;16.63;100.00
70027;BME280;57506;50.092;15.804;2022-08-21T02:45:29;98749.19;;;16.55;100.00
70027;BME280;57506;50.092;15.804;2022-08-21T02:47:59;98750.34;;;16.59;100.00
70027;BME280;57506;50.092;15.804;2022-08-21T02:50:36;98764.66;;;16.66;100.00
70027;BME280;57506;50.092;15.804;2022-08-21T02:53:03;98769.28;;;16.65;100.00
70027;BME280;57506;50.092;15.804;2022-08-21T02:55:31;98771.28;;;16.70;100.00
70027;BME280;57506;50.092;15.804;2022-08-21T02:57:57;98777.56;;;16.70;100.00
70027;BME280;57506;50.092;15.804;2022-08-21T03:00:26;98776.47;;;16.71;100.00
70027;BME280;57506;50.092;15.804;2022-08-21T03:02:52;98760.16;;;16.60;100.00
70027;BME280;57506;50.092;15.804;2022-08-21T03:05:19;98783.00;;;16.70;100.00
70027;BME280;57506;50.092;15.804;2022-08-21T03:07:45;98757.34;;;16.55;100.00
70027;BME280;57506;50.092;15.804;2022-08-21T03:10:13;98773.41;;;16.68;100.00
70027;BME280;57506;50.092;15.804;2022-08-21T03:12:38;98773.06;;;16.64;100.00
70027;BME280;57506;50.092;15.804;2022-08-21T03:15:10;98783.47;;;16.67;100.00
70027;BME280;57506;50.092;15.804;2022-08-21T03:17:36;98780.50;;;16.69;100.00
70027;BME280;57506;50.092;15.804;2022-08-21T03:20:07;98789.16;;;16.66;100.00
70027;BME280;57506;50.092;15.804;2022-08-21T03:22:33;98785.47;;;16.72;100.00
70027;BME280;57506;50.092;15.804;2022-08-21T03:24:59;98779.50;;;16.75;100.00
70027;BME280;57506;50.092;15.804;2022-08-21T03:27:25;98769.63;;;16.69;100.00
70027;BME280;57506;50.092;15.804;2022-08-21T03:29:52;98774.00;;;16.70;100.00
70027;BME280;57506;50.092;15.804;2022-08-21T03:32:18;98781.56;;;16.68;100.00
70027;BME280;57506;50.092;15.804;2022-08-21T03:34:45;98779.34;;;16.65;100.00
70027;BME280;57506;50.092;15.804;2022-08-21T03:37:11;98795.84;;;16.75;100.00
70027;BME280;57506;50.092;15.804;2022-08-21T03:39:37;98792.06;;;16.76;100.00
70027;BME280;57506;50.092;15.804;2022-08-21T03:42:03;98764.78;;;16.59;100.00
70027;BME280;57506;50.092;15.804;2022-08-21T03:44:30;98781.63;;;16.44;100.00
70027;BME280;57506;50.092;15.804;2022-08-21T03:46:56;98789.78;;;16.44;100.00
70027;BME280;57506;50.092;15.804;2022-08-21T03:49:22;98780.13;;;16.37;100.00
70027;BME280;57506;50.092;15.804;2022-08-21T03:51:47;98790.03;;;16.43;100.00
70027;BME280;57506;50.092;15.804;2022-08-21T03:54:13;98791.09;;;16.42;100.00
70027;BME280;57506;50.092;15.804;2022-08-21T03:56:38;98790.75;;;16.38;100.00
70027;BME280;57506;50.092;15.804;2022-08-21T03:59:05;98786.63;;;16.36;100.00
70027;BME280;57506;50.092;15.804;2022-08-21T04:01:30;98802.19;;;16.40;100.00
70027;BME280;57506;50.092;15.804;2022-08-21T04:03:56;98800.31;;;16.41;100.00
70027;BME280;57506;50.092;15.804;2022-08-21T04:06:22;98791.25;;;16.35;100.00
70027;BME280;57506;50.092;15.804;2022-08-21T04:08:47;98788.75;;;16.34;100.00
70027;BME280;57506;50.092;15.804;2022-08-21T04:11:13;98790.41;;;16.35;100.00
70027;BME280;57506;50.092;15.804;2022-08-21T04:13:40;98796.31;;;16.32;100.00
70027;BME280;57506;50.092;15.804;2022-08-21T04:16:06;98804.09;;;16.40;100.00
70027;BME280;57506;50.092;15.804;2022-08-21T04:18:32;98802.47;;;16.39;100.00
70027;BME280;57506;50.092;15.804;2022-08-21T04:20:58;98809.53;;;16.40;100.00
70027;BME280;57506;50.092;15.804;2022-08-21T04:23:25;98810.63;;;16.39;100.00
70027;BME280;57506;50.092;15.804;2022-08-21T04:25:52;98791.13;;;16.30;100.00
70027;BME280;57506;50.092;15.804;2022-08-21T04:28:18;98796.81;;;16.29;100.00
70027;BME280;57506;50.092;15.804;2022-08-21T04:30:44;98814.19;;;16.39;100.00
70027;BME280;57506;50.092;15.804;2022-08-21T04:33:10;98820.69;;;16.38;100.00
70027;BME280;57506;50.092;15.804;2022-08-21T04:35:35;98821.25;;;16.40;100.00
70027;BME280;57506;50.092;15.804;2022-08-21T04:38:01;98816.91;;;16.39;100.00
70027;BME280;57506;50.092;15.804;2022-08-21T04:40:27;98827.84;;;16.44;100.00
70027;BME280;57506;50.092;15.804;2022-08-21T04:42:58;98833.31;;;16.44;100.00
70027;BME280;57506;50.092;15.804;2022-08-21T04:45:52;98817.44;;;16.41;100.00
70027;BME280;57506;50.092;15.804;2022-08-21T04:48:21;98821.81;;;16.42;100.00
70027;BME280;57506;50.092;15.804;2022-08-21T04:53:41;98835.78;;;16.46;100.00
70027;BME280;57506;50.092;15.804;2022-08-21T04:56:23;98831.66;;;16.43;100.00
70027;BME280;57506;50.092;15.804;2022-08-21T04:58:53;98833.31;;;16.44;100.00
70027;BME280;57506;50.092;15.804;2022-08-21T05:01:23;98836.13;;;16.50;100.00
70027;BME280;57506;50.092;15.804;2022-08-21T05:03:54;98840.41;;;16.45;100.00
70027;BME280;57506;50.092;15.804;2022-08-21T05:06:22;98838.16;;;16.42;100.00
70027;BME280;57506;50.092;15.804;2022-08-21T05:08:49;98851.38;;;16.51;100.00
70027;BME280;57506;50.092;15.804;2022-08-21T05:11:18;98851.16;;;16.52;100.00
70027;BME280;57506;50.092;15.804;2022-08-21T05:13:44;98859.66;;;16.56;100.00
70027;BME280;57506;50.092;15.804;2022-08-21T05:16:10;98832.81;;;16.48;100.00
70027;BME280;57506;50.092;15.804;2022-08-21T05:18:36;98860.72;;;16.55;100.00
70027;BME280;57506;50.092;15.804;2022-08-21T05:21:02;98846.06;;;16.56;100.00
70027;BME280;57506;50.092;15.804;2022-08-21T05:23:28;98840.03;;;16.54;100.00
70027;BME280;57506;50.092;15.804;2022-08-21T05:25:54;98853.47;;;16.60;100.00
70027;BME280;57506;50.092;15.804;2022-08-21T05:28:21;98845.56;;;16.59;100.00
70027;BME280;57506;50.092;15.804;2022-08-21T05:30:47;98844.41;;;16.55;100.00
70027;BME280;57506;50.092;15.804;2022-08-21T05:33:13;98840.03;;;16.54;100.00
70027;BME280;57506;50.092;15.804;2022-08-21T05:35:38;98851.50;;;16.56;100.00
70027;BME280;57506;50.092;15.804;2022-08-21T05:38:05;98834.72;;;16.47;100.00
70027;BME280;57506;50.092;15.804;2022-08-21T05:40:32;98834.44;;;16.60;100.00
70027;BME280;57506;50.092;15.804;2022-08-21T05:42:58;98844.72;;;16.58;100.00
70027;BME280;57506;50.092;15.804;2022-08-21T05:45:30;98841.34;;;16.51;100.00
70027;BME280;57506;50.092;15.804;2022-08-21T05:47:57;98839.91;;;16.49;100.00
70027;BME280;57506;50.092;15.804;2022-08-21T05:50:22;98853.72;;;16.59;100.00
70027;BME280;57506;50.092;15.804;2022-08-21T05:52:48;98854.78;;;16.58;100.00
70027;BME280;57506;50.092;15.804;2022-08-21T05:55:14;98858.34;;;16.58;100.00
70027;BME280;57506;50.092;15.804;2022-08-21T05:57:39;98857.84;;;16.61;100.00
70027;BME280;57506;50.092;15.804;2022-08-21T06:00:07;98872.91;;;16.64;100.00
70027;BME280;57506;50.092;15.804;2022-08-21T06:02:35;98873.50;;;16.66;100.00
70027;BME280;57506;50.092;15.804;2022-08-21T06:05:01;98853.03;;;16.52;100.00
70027;BME280;57506;50.092;15.804;2022-08-21T06:07:27;98872.66;;;16.65;100.00
70027;BME280;57506;50.092;15.804;2022-08-21T06:09:52;98873.13;;;16.62;100.00
70027;BME280;57506;50.092;15.804;2022-08-21T06:12:18;98876.69;;;16.63;100.00
70027;BME280;57506;50.092;15.804;2022-08-21T06:14:43;98860.13;;;16.64;100.00
70027;BME280;57506;50.092;15.804;2022-08-21T06:17:11;98869.94;;;16.65;100.00
70027;BME280;57506;50.092;15.804;2022-08-21T06:19:37;98878.00;;;16.72;100.00
70027;BME280;57506;50.092;15.804;2022-08-21T06:22:03;98860.22;;;16.58;100.00
70027;BME280;57506;50.092;15.804;2022-08-21T06:24:29;98875.00;;;16.73;100.00
70027;BME280;57506;50.092;15.804;2022-08-21T06:26:56;98885.75;;;16.80;100.00
70027;BME280;57506;50.092;15.804;2022-08-21T06:29:22;98866.84;;;16.73;100.00
70027;BME280;57506;50.092;15.804;2022-08-21T06:31:49;98884.81;;;16.86;100.00
70027;BME280;57506;50.092;15.804;2022-08-21T06:34:16;98872.63;;;16.77;100.00
70027;BME280;57506;50.092;15.804;2022-08-21T06:36:42;98869.06;;;16.76;100.00
70027;BME280;57506;50.092;15.804;2022-08-21T06:39:07;98885.88;;;16.85;100.00
70027;BME280;57506;50.092;15.804;2022-08-21T06:41:34;98895.19;;;16.89;100.00
70027;BME280;57506;50.092;15.804;2022-08-21T06:44:00;98871.44;;;16.73;100.00
70027;BME280;57506;50.092;15.804;2022-08-21T06:46:28;98885.16;;;16.78;100.00
70027;BME280;57506;50.092;15.804;2022-08-21T06:48:55;98883.03;;;16.80;100.00
70027;BME280;57506;50.092;15.804;2022-08-21T06:51:22;98902.28;;;16.90;100.00
70027;BME280;57506;50.092;15.804;2022-08-21T06:53:48;98901.13;;;16.86;100.00
70027;BME280;57506;50.092;15.804;2022-08-21T06:56:14;98896.16;;;16.83;100.00
70027;BME280;57506;50.092;15.804;2022-08-21T06:58:40;98904.34;;;16.83;100.00
70027;BME280;57506;50.092;15.804;2022-08-21T07:01:06;98914.97;;;16.85;100.00
70027;BME280;57506;50.092;15.804;2022-08-21T07:03:37;98922.31;;;16.84;100.00
70027;BME280;57506;50.092;15.804;2022-08-21T07:06:04;98899.84;;;16.77;100.00
70027;BME280;57506;50.092;15.804;2022-08-21T07:08:30;98888.03;;;16.71;100.00
70027;BME280;57506;50.092;15.804;2022-08-21T07:10:57;98917.94;;;16.83;100.00
70027;BME280;57506;50.092;15.804;2022-08-21T07:13:23;98898.22;;;16.64;100.00
70027;BME280;57506;50.092;15.804;2022-08-21T07:15:49;98917.13;;;16.83;100.00
70027;BME280;57506;50.092;15.804;2022-08-21T07:18:15;98927.66;;;16.79;100.00
70027;BME280;57506;50.092;15.804;2022-08-21T07:20:41;98928.22;;;16.81;100.00
70027;BME280;57506;50.092;15.804;2022-08-21T07:23:11;98928.47;;;16.79;100.00
70027;BME280;57506;50.092;15.804;2022-08-21T07:25:38;98925.75;;;16.79;100.00
70027;BME280;57506;50.092;15.804;2022-08-21T07:28:04;98923.84;;;16.80;100.00
70027;BME280;57506;50.092;15.804;2022-08-21T07:30:30;98928.94;;;16.76;100.00
70027;BME280;57506;50.092;15.804;2022-08-21T07:32:55;98936.28;;;16.76;100.00
70027;BME280;57506;50.092;15.804;2022-08-21T07:35:22;98936.63;;;16.79;100.00
70027;BME280;57506;50.092;15.804;2022-08-21T07:37:49;98939.13;;;16.81;100.00
70027;BME280;57506;50.092;15.804;2022-08-21T07:40:15;98928.88;;;16.71;100.00
70027;BME280;57506;50.092;15.804;2022-08-21T07:42:43;98937.84;;;16.72;100.00
70027;BME280;57506;50.092;15.804;2022-08-21T07:45:10;98936.09;;;16.66;100.00
70027;BME280;57506;50.092;15.804;2022-08-21T07:47:36;98940.94;;;16.64;100.00
70027;BME280;57506;50.092;15.804;2022-08-21T07:50:04;98933.69;;;16.58;100.00
70027;BME280;57506;50.092;15.804;2022-08-21T07:52:31;98938.81;;;16.66;100.00
70027;BME280;57506;50.092;15.804;2022-08-21T07:54:58;98934.88;;;16.62;100.00
70027;BME280;57506;50.092;15.804;2022-08-21T07:57:23;98937.97;;;16.65;100.00
70027;BME280;57506;50.092;15.804;2022-08-21T07:59:49;98923.38;;;16.60;100.00
70027;BME280;57506;50.092;15.804;2022-08-21T08:02:43;98932.13;;;16.62;100.00
70027;BME280;57506;50.092;15.804;2022-08-21T08:05:11;98924.38;;;16.54;100.00
70027;BME280;57506;50.092;15.804;2022-08-21T08:07:37;98927.69;;;16.56;100.00
70027;BME280;57506;50.092;15.804;2022-08-21T08:10:04;98941.84;;;16.58;100.00
70027;BME280;57506;50.092;15.804;2022-08-21T08:12:33;98923.41;;;16.48;100.00
70027;BME280;57506;50.092;15.804;2022-08-21T08:14:59;98930.41;;;16.56;100.00
70027;BME280;57506;50.092;15.804;2022-08-21T08:17:26;98921.53;;;16.49;100.00
70027;BME280;57506;50.092;15.804;2022-08-21T08:19:52;98923.75;;;16.40;100.00
70027;BME280;57506;50.092;15.804;2022-08-21T08:22:22;98944.00;;;16.56;100.00
70027;BME280;57506;50.092;15.804;2022-08-21T08:24:53;98952.25;;;16.61;100.00
70027;BME280;57506;50.092;15.804;2022-08-21T08:27:20;98938.91;;;16.48;100.00
70027;BME280;57506;50.092;15.804;2022-08-21T08:29:46;98931.44;;;16.43;100.00
70027;BME280;57506;50.092;15.804;2022-08-21T08:32:12;98952.50;;;16.48;100.00
70027;BME280;57506;50.092;15.804;2022-08-21T08:34:38;98924.72;;;16.34;100.00
70027;BME280;57506;50.092;15.804;2022-08-21T08:37:05;98966.81;;;16.55;100.00
70027;BME280;57506;50.092;15.804;2022-08-21T08:39:32;98970.22;;;16.62;100.00
70027;BME280;57506;50.092;15.804;2022-08-21T08:42:09;98968.34;;;16.62;100.00
70027;BME280;57506;50.092;15.804;2022-08-21T08:44:37;98965.25;;;16.59;100.00
70027;BME280;57506;50.092;15.804;2022-08-21T08:47:04;98953.91;;;16.62;100.00
70027;BME280;57506;50.092;15.804;2022-08-21T08:49:40;98957.25;;;16.64;100.00
70027;BME280;57506;50.092;15.804;2022-08-21T08:52:19;98972.63;;;16.70;100.00
70027;BME280;57506;50.092;15.804;2022-08-21T08:54:51;98963.16;;;16.49;100.00
70027;BME280;57506;50.092;15.804;2022-08-21T08:57:22;98975.94;;;16.37;100.00
70027;BME280;57506;50.092;15.804;2022-08-21T08:59:52;98970.59;;;16.30;100.00
70027;BME280;57506;50.092;15.804;2022-08-21T09:02:19;98954.28;;;16.30;100.00
70027;BME280;57506;50.092;15.804;2022-08-21T09:04:47;98969.88;;;16.47;100.00
70027;BME280;57506;50.092;15.804;2022-08-21T09:10:23;98987.91;;;16.71;100.00
70027;BME280;57506;50.092;15.804;2022-08-21T09:15:55;98976.97;;;16.94;100.00
70027;BME280;57506;50.092;15.804;2022-08-21T09:18:34;98986.03;;;17.11;100.00
70027;BME280;57506;50.092;15.804;2022-08-21T09:26:17;98984.75;;;17.02;100.00
70027;BME280;57506;50.092;15.804;2022-08-21T09:28:44;98985.13;;;16.94;100.00
70027;BME280;57506;50.092;15.804;2022-08-21T09:33:44;98984.19;;;16.77;100.00
70027;BME280;57506;50.092;15.804;2022-08-21T09:36:10;98983.53;;;16.70;100.00
70027;BME280;57506;50.092;15.804;2022-08-21T09:38:36;98989.88;;;16.87;100.00
70027;BME280;57506;50.092;15.804;2022-08-21T09:41:09;98982.78;;;16.86;100.00
70027;BME280;57506;50.092;15.804;2022-08-21T09:43:37;98973.56;;;16.87;100.00
70027;BME280;57506;50.092;15.804;2022-08-21T09:46:19;98993.66;;;16.98;100.00
70027;BME280;57506;50.092;15.804;2022-08-21T09:48:47;98973.88;;;16.91;100.00
70027;BME280;57506;50.092;15.804;2022-08-21T09:51:22;98978.13;;;16.98;100.00
70027;BME280;57506;50.092;15.804;2022-08-21T09:53:51;98983.69;;;17.03;100.00
70027;BME280;57506;50.092;15.804;2022-08-21T09:56:51;98964.63;;;17.03;100.00
70027;BME280;57506;50.092;15.804;2022-08-21T09:59:28;98983.25;;;17.23;100.00
70027;BME280;57506;50.092;15.804;2022-08-21T10:01:59;98965.03;;;17.24;100.00
70027;BME280;57506;50.092;15.804;2022-08-21T10:04:32;98991.22;;;17.53;100.00
70027;BME280;57506;50.092;15.804;2022-08-21T10:07:09;98974.28;;;17.51;100.00
70027;BME280;57506;50.092;15.804;2022-08-21T10:09:36;98979.47;;;17.64;100.00
70027;BME280;57506;50.092;15.804;2022-08-21T10:13:16;98984.91;;;17.64;100.00
70027;BME280;57506;50.092;15.804;2022-08-21T10:20:44;98984.47;;;18.01;100.00
70027;BME280;57506;50.092;15.804;2022-08-21T10:25:52;98976.44;;;18.44;100.00
70027;BME280;57506;50.092;15.804;2022-08-21T10:28:26;98987.69;;;18.65;100.00
70027;BME280;57506;50.092;15.804;2022-08-21T10:37:09;98979.63;;;18.75;100.00
70027;BME280;57506;50.092;15.804;2022-08-21T10:45:13;98977.03;;;18.85;100.00
70027;BME280;57506;50.092;15.804;2022-08-21T10:47:45;98985.19;;;18.80;100.00
70027;BME280;57506;50.092;15.804;2022-08-21T10:55:36;98976.50;;;18.83;100.00
70027;BME280;57506;50.092;15.804;2022-08-21T10:58:44;98975.97;;;18.86;100.00
70027;BME280;57506;50.092;15.804;2022-08-21T11:01:29;98963.28;;;18.97;100.00
70027;BME280;57506;50.092;15.804;2022-08-21T11:06:37;98980.97;;;19.16;100.00
70027;BME280;57506;50.092;15.804;2022-08-21T11:09:13;98980.53;;;19.24;100.00
70027;BME280;57506;50.092;15.804;2022-08-21T11:11:46;98970.44;;;19.25;100.00
70027;BME280;57506;50.092;15.804;2022-08-21T11:15:03;98983.16;;;19.14;100.00
70027;BME280;57506;50.092;15.804;2022-08-21T11:17:35;98977.72;;;19.41;100.00
70027;BME280;57506;50.092;15.804;2022-08-21T11:20:12;98970.75;;;19.50;100.00
70027;BME280;57506;50.092;15.804;2022-08-21T11:22:56;98954.78;;;19.42;100.00
70027;BME280;57506;50.092;15.804;2022-08-21T11:28:00;98976.81;;;19.30;100.00
70027;BME280;57506;50.092;15.804;2022-08-21T11:33:44;98981.59;;;19.67;100.00
70027;BME280;57506;50.092;15.804;2022-08-21T11:39:30;98977.22;;;19.00;100.00
70027;BME280;57506;50.092;15.804;2022-08-21T11:50:20;98979.13;;;19.97;100.00
70027;BME280;57506;50.092;15.804;2022-08-21T11:52:57;98975.50;;;19.86;100.00
70027;BME280;57506;50.092;15.804;2022-08-21T11:55:41;98976.72;;;20.01;100.00
70027;BME280;57506;50.092;15.804;2022-08-21T12:00:52;98974.28;;;20.04;100.00
70027;BME280;57506;50.092;15.804;2022-08-21T12:03:29;98970.47;;;20.05;100.00
70027;BME280;57506;50.092;15.804;2022-08-21T12:06:11;98975.50;;;19.60;100.00
70027;BME280;57506;50.092;15.804;2022-08-21T12:08:44;98977.00;;;19.72;100.00
70027;BME280;57506;50.092;15.804;2022-08-21T12:14:35;98981.38;;;19.73;100.00
70027;BME280;57506;50.092;15.804;2022-08-21T12:16:48;98984.06;;;19.68;100.00
70027;BME280;57506;50.092;15.804;2022-08-21T12:27:29;98990.97;;;20.03;100.00
70027;BME280;57506;50.092;15.804;2022-08-21T12:32:28;98982.41;;;20.26;100.00
70027;BME280;57506;50.092;15.804;2022-08-21T12:35:01;98992.47;;;20.20;100.00
70027;BME280;57506;50.092;15.804;2022-08-21T12:37:41;98990.09;;;20.29;100.00
70027;BME280;57506;50.092;15.804;2022-08-21T12:40:39;98989.41;;;20.12;100.00
70027;BME280;57506;50.092;15.804;2022-08-21T12:43:13;98965.47;;;19.97;100.00
70027;BME280;57506;50.092;15.804;2022-08-21T12:45:43;98986.13;;;20.15;100.00
70027;BME280;57506;50.092;15.804;2022-08-21T12:48:33;98994.13;;;20.21;100.00
70027;BME280;57506;50.092;15.804;2022-08-21T12:51:12;98988.09;;;20.51;100.00
70027;BME280;57506;50.092;15.804;2022-08-21T12:53:48;98962.63;;;20.19;100.00
70027;BME280;57506;50.092;15.804;2022-08-21T12:56:19;98978.31;;;20.60;100.00
70027;BME280;57506;50.092;15.804;2022-08-21T12:58:56;98970.91;;;21.08;100.00
70027;BME280;57506;50.092;15.804;2022-08-21T13:01:45;98980.31;;;21.22;100.00
70027;BME280;57506;50.092;15.804;2022-08-21T13:04:16;98965.50;;;21.28;100.00
70027;BME280;57506;50.092;15.804;2022-08-21T13:06:48;98973.19;;;21.32;100.00
70027;BME280;57506;50.092;15.804;2022-08-21T13:09:20;98974.19;;;21.15;100.00
70027;BME280;57506;50.092;15.804;2022-08-21T13:11:50;98978.66;;;21.21;100.00
70027;BME280;57506;50.092;15.804;2022-08-21T13:14:38;98976.56;;;20.91;100.00
70027;BME280;57506;50.092;15.804;2022-08-21T13:17:05;98973.66;;;21.18;100.00
70027;BME280;57506;50.092;15.804;2022-08-21T13:19:32;98970.94;;;21.18;100.00
70027;BME280;57506;50.092;15.804;2022-08-21T13:21:59;98983.03;;;21.22;100.00
70027;BME280;57506;50.092;15.804;2022-08-21T13:24:28;98952.94;;;21.38;98.30
70027;BME280;57506;50.092;15.804;2022-08-21T13:26:55;98968.81;;;21.36;100.00
70027;BME280;57506;50.092;15.804;2022-08-21T13:29:28;98937.00;;;21.24;99.16
70027;BME280;57506;50.092;15.804;2022-08-21T13:32:00;98963.94;;;21.53;100.00
70027;BME280;57506;50.092;15.804;2022-08-21T13:34:33;98951.88;;;21.64;98.42
70027;BME280;57506;50.092;15.804;2022-08-21T13:37:02;98967.03;;;21.87;100.00
70027;BME280;57506;50.092;15.804;2022-08-21T13:39:29;98962.81;;;21.44;97.06
70027;BME280;57506;50.092;15.804;2022-08-21T13:41:57;98920.09;;;21.58;98.80
70027;BME280;57506;50.092;15.804;2022-08-21T13:44:39;98968.38;;;21.79;91.82
70027;BME280;57506;50.092;15.804;2022-08-21T13:47:06;98954.59;;;21.49;96.57
70027;BME280;57506;50.092;15.804;2022-08-21T13:49:37;98950.84;;;22.26;96.84
70027;BME280;57506;50.092;15.804;2022-08-21T13:52:05;98951.41;;;22.13;93.24
70027;BME280;57506;50.092;15.804;2022-08-21T13:54:41;98947.03;;;22.37;93.94
70027;BME280;57506;50.092;15.804;2022-08-21T13:59:52;98925.59;;;22.09;92.79
70027;BME280;57506;50.092;15.804;2022-08-21T14:02:23;98935.22;;;22.11;92.87
70027;BME280;57506;50.092;15.804;2022-08-21T14:05:01;98945.63;;;22.24;89.82
70027;BME280;57506;50.092;15.804;2022-08-21T14:07:31;98942.59;;;22.51;91.04
70027;BME280;57506;50.092;15.804;2022-08-21T14:10:07;98945.38;;;22.31;89.41
70027;BME280;57506;50.092;15.804;2022-08-21T14:12:55;98934.34;;;22.41;87.29
70027;BME280;57506;50.092;15.804;2022-08-21T14:15:25;98889.91;;;22.34;91.78
70027;BME280;57506;50.092;15.804;2022-08-21T14:17:54;98896.25;;;22.19;92.15